createdAt,value
2023-05-10T00:01:59.968Z,7.29
2023-05-10T00:05:03.016Z,7.22
2023-05-10T00:08:05.961Z,7.18
2023-05-10T00:11:08.836Z,7.15
2023-05-10T00:14:12.564Z,7.09
2023-05-10T00:17:15.337Z,7.02
2023-05-10T00:20:18.555Z,6.96
2023-05-10T00:23:21.536Z,6.89
2023-05-10T00:26:24.288Z,6.82
2023-05-10T00:29:29.379Z,6.78
2023-05-10T00:32:32.370Z,6.74
2023-05-10T00:35:35.366Z,6.69
2023-05-10T00:38:38.135Z,6.65
2023-05-10T00:41:41.494Z,6.62
2023-05-10T00:44:44.482Z,6.58
2023-05-10T00:47:48.509Z,6.55
2023-05-10T00:50:51.441Z,6.49
2023-05-10T00:53:57.090Z,6.42
2023-05-10T00:56:59.970Z,6.38
2023-05-10T01:00:04.980Z,6.35
2023-05-10T01:03:07.925Z,6.32
2023-05-10T01:06:11.285Z,6.30
2023-05-10T01:09:14.153Z,6.32
2023-05-10T01:12:17.018Z,6.30
2023-05-10T01:15:22.193Z,6.26
2023-05-10T01:18:27.247Z,6.22
2023-05-10T01:21:51.652Z,6.17
2023-05-10T01:25:22.178Z,6.15
2023-05-10T01:28:37.250Z,6.10
2023-05-10T01:32:17.622Z,6.08
2023-05-10T01:35:31.492Z,6.04
2023-05-10T01:38:44.111Z,5.98
2023-05-10T01:42:04.467Z,5.93
2023-05-10T01:45:07.850Z,5.91
2023-05-10T01:48:12.274Z,5.90
2023-05-10T01:51:21.598Z,5.87
2023-05-10T01:54:25.800Z,5.84
2023-05-10T01:57:34.669Z,5.82
2023-05-10T02:00:42.808Z,5.80
2023-05-10T02:03:46.583Z,5.79
2023-05-10T02:06:50.643Z,5.80
2023-05-10T02:09:55.571Z,5.79
2023-05-10T02:13:01.242Z,5.78
2023-05-10T02:16:06.226Z,5.72
2023-05-10T02:19:11.073Z,5.70
2023-05-10T02:22:15.653Z,5.65
2023-05-10T02:25:21.133Z,5.59
2023-05-10T02:28:26.077Z,5.55
2023-05-10T02:31:29.082Z,5.49
2023-05-10T02:34:32.857Z,5.44
2023-05-10T02:37:38.503Z,5.41
2023-05-10T02:40:43.570Z,5.36
2023-05-10T02:43:48.088Z,5.35
2023-05-10T02:46:51.101Z,5.34
2023-05-10T02:49:54.588Z,5.33
2023-05-10T02:53:03.168Z,5.30
2023-05-10T02:56:14.413Z,5.32
2023-05-10T02:59:17.401Z,5.32
2023-05-10T03:02:22.229Z,5.28
2023-05-10T03:05:25.545Z,5.24
2023-05-10T03:08:30.562Z,5.20
2023-05-10T03:11:55.413Z,5.19
2023-05-10T03:15:32.425Z,5.24
2023-05-10T03:19:04.514Z,5.31
2023-05-10T03:22:11.933Z,5.45
2023-05-10T03:25:17.829Z,5.62
2023-05-10T03:28:23.075Z,5.80
2023-05-10T03:31:26.550Z,6.02
2023-05-10T03:34:32.412Z,6.26
2023-05-10T03:37:35.943Z,6.53
2023-05-10T03:40:38.952Z,6.83
2023-05-10T03:43:42.241Z,7.13
2023-05-10T03:46:45.069Z,7.43
2023-05-10T03:49:48.028Z,7.71
2023-05-10T03:52:52.977Z,7.93
2023-05-10T03:55:56.962Z,8.15
2023-05-10T03:59:00.192Z,8.41
2023-05-10T04:02:03.740Z,8.51
2023-05-10T04:05:07.335Z,8.67
2023-05-10T04:08:10.344Z,8.91
2023-05-10T04:11:13.833Z,9.16
2023-05-10T04:14:17.517Z,9.33
2023-05-10T04:17:20.293Z,9.49
2023-05-10T04:20:23.259Z,9.61
2023-05-10T04:23:26.148Z,9.72
2023-05-10T04:26:28.953Z,9.91
2023-05-10T04:29:31.949Z,10.03
2023-05-10T04:32:34.801Z,10.27
2023-05-10T04:35:38.015Z,10.42
2023-05-10T04:38:41.105Z,10.58
2023-05-10T04:41:43.847Z,10.75
2023-05-10T04:44:46.559Z,10.94
2023-05-10T04:47:49.332Z,11.19
2023-05-10T04:50:52.549Z,11.41
2023-05-10T04:54:05.199Z,11.49
2023-05-10T04:57:09.063Z,11.63
2023-05-10T05:00:12.608Z,11.74
2023-05-10T05:03:16.014Z,11.89
2023-05-10T05:06:18.885Z,12.05
2023-05-10T05:09:21.667Z,12.16
2023-05-10T05:12:24.513Z,12.09
2023-05-10T05:15:27.548Z,12.07
2023-05-10T05:18:30.282Z,12.28
2023-05-10T05:21:33.563Z,12.35
2023-05-10T05:24:39.144Z,12.41
2023-05-10T05:27:42.238Z,12.49
2023-05-10T05:30:45.425Z,12.68
2023-05-10T05:33:48.212Z,12.81
2023-05-10T05:36:51.114Z,12.92
2023-05-10T05:39:55.471Z,13.03
2023-05-10T05:42:58.190Z,13.25
2023-05-10T05:46:01.045Z,13.44
2023-05-10T05:49:03.871Z,13.69
2023-05-10T05:52:06.654Z,13.73
2023-05-10T05:55:09.914Z,13.88
2023-05-10T05:58:12.984Z,14.15
2023-05-10T06:01:15.707Z,14.48
2023-05-10T06:04:18.543Z,14.55
2023-05-10T06:07:21.464Z,14.88
2023-05-10T06:10:24.249Z,15.26
2023-05-10T06:13:33.166Z,15.49
2023-05-10T06:16:36.313Z,15.37
2023-05-10T06:19:39.107Z,15.37
2023-05-10T06:22:42.348Z,15.45
2023-05-10T06:25:45.039Z,15.47
2023-05-10T06:28:47.777Z,15.56
2023-05-10T06:31:50.622Z,15.69
2023-05-10T06:34:53.441Z,16.04
2023-05-10T06:37:56.540Z,16.38
2023-05-10T06:40:59.271Z,16.38
2023-05-10T06:44:02.032Z,16.34
2023-05-10T06:47:04.942Z,16.38
2023-05-10T06:50:09.497Z,16.43
2023-05-10T06:53:13.120Z,16.39
2023-05-10T06:56:15.870Z,16.31
2023-05-10T06:59:20.188Z,16.34
2023-05-10T07:02:23.813Z,16.23
2023-05-10T07:05:28.865Z,16.44
2023-05-10T07:08:32.860Z,16.78
2023-05-10T07:11:36.225Z,17.13
2023-05-10T07:14:38.995Z,17.36
2023-05-10T07:17:43.206Z,17.35
2023-05-10T07:20:47.765Z,17.26
2023-05-10T07:23:51.184Z,17.37
2023-05-10T07:26:53.900Z,17.54
2023-05-10T07:29:57.592Z,17.77
2023-05-10T07:33:00.391Z,17.62
2023-05-10T07:36:03.565Z,17.33
2023-05-10T07:39:06.326Z,17.26
2023-05-10T07:42:09.473Z,17.35
2023-05-10T07:45:12.434Z,17.34
2023-05-10T07:48:15.168Z,17.27
2023-05-10T07:51:18.026Z,17.17
2023-05-10T07:54:20.756Z,17.18
2023-05-10T07:57:23.871Z,17.44
2023-05-10T08:00:26.697Z,17.50
2023-05-10T08:03:29.476Z,17.47
2023-05-10T08:06:32.438Z,17.42
2023-05-10T08:09:35.268Z,17.30
2023-05-10T08:12:39.297Z,17.39
2023-05-10T08:15:42.267Z,17.46
2023-05-10T08:18:47.998Z,17.21
2023-05-10T08:21:50.955Z,17.10
2023-05-10T08:24:53.733Z,16.95
2023-05-10T08:27:56.476Z,16.85
2023-05-10T08:30:59.295Z,16.93
2023-05-10T08:34:02.334Z,17.01
2023-05-10T08:37:05.274Z,17.19
2023-05-10T08:40:12.491Z,17.29
2023-05-10T08:43:18.055Z,17.15
2023-05-10T08:46:23.048Z,17.02
2023-05-10T08:49:31.834Z,17.15
2023-05-10T08:52:40.333Z,17.25
2023-05-10T08:55:43.882Z,17.20
2023-05-10T08:58:47.082Z,17.32
2023-05-10T09:01:51.642Z,17.43
2023-05-10T09:04:54.547Z,17.39
2023-05-10T09:07:57.769Z,17.36
2023-05-10T09:11:02.499Z,17.37
2023-05-10T09:14:05.481Z,17.41
2023-05-10T09:17:08.541Z,17.61
2023-05-10T09:20:11.825Z,17.87
2023-05-10T09:23:14.597Z,17.96
2023-05-10T09:26:17.349Z,17.97
2023-05-10T09:29:20.187Z,18.04
2023-05-10T09:32:24.061Z,18.32
2023-05-10T09:35:30.145Z,18.26
2023-05-10T09:38:46.388Z,18.23
2023-05-10T09:41:49.513Z,18.10
2023-05-10T09:44:52.284Z,17.99
2023-05-10T09:47:56.144Z,17.89
2023-05-10T09:50:59.350Z,17.75
2023-05-10T09:54:20.218Z,17.72
2023-05-10T09:57:24.162Z,17.81
2023-05-10T10:00:27.407Z,17.86
2023-05-10T10:03:31.301Z,17.93
2023-05-10T10:06:38.735Z,18.03
2023-05-10T10:09:41.803Z,18.12
2023-05-10T10:12:45.709Z,18.15
2023-05-10T10:15:52.057Z,18.10
2023-05-10T10:18:55.674Z,18.13
2023-05-10T10:21:59.963Z,18.29
2023-05-10T10:25:03.125Z,18.42
2023-05-10T10:28:19.725Z,18.50
2023-05-10T10:31:33.497Z,18.44
2023-05-10T10:34:36.680Z,18.45
2023-05-10T10:37:48.343Z,18.37
2023-05-10T10:41:13.001Z,18.43
2023-05-10T10:44:40.194Z,18.26
2023-05-10T10:47:44.262Z,18.31
2023-05-10T10:50:47.825Z,18.15
2023-05-10T10:53:50.616Z,18.06
2023-05-10T10:57:14.606Z,17.97
2023-05-10T11:00:24.826Z,18.04
2023-05-10T11:03:30.012Z,18.17
2023-05-10T11:06:34.715Z,18.39
2023-05-10T11:09:41.673Z,18.38
2023-05-10T11:13:05.395Z,18.25
2023-05-10T11:16:13.512Z,18.28
2023-05-10T11:19:17.868Z,18.22
2023-05-10T11:22:20.675Z,18.08
2023-05-10T11:25:29.357Z,18.08
2023-05-10T11:28:33.282Z,18.25
2023-05-10T11:31:36.555Z,18.27
2023-05-10T11:34:39.976Z,18.07
2023-05-10T11:37:44.691Z,18.07
2023-05-10T11:40:47.596Z,18.23
2023-05-10T11:43:55.747Z,18.34
2023-05-10T11:47:02.626Z,18.37
2023-05-10T11:50:06.673Z,18.42
2023-05-10T11:53:09.543Z,18.32
2023-05-10T11:56:12.581Z,18.36
2023-05-10T11:59:16.184Z,18.41
2023-05-10T12:02:19.205Z,18.40
2023-05-10T12:05:22.580Z,18.39
2023-05-10T12:08:28.273Z,18.27
2023-05-10T12:11:31.236Z,18.13
2023-05-10T12:14:36.763Z,18.11
2023-05-10T12:17:43.431Z,18.23
2023-05-10T12:20:46.507Z,18.23
2023-05-10T12:23:53.855Z,18.12
2023-05-10T12:26:56.576Z,18.07
2023-05-10T12:30:01.006Z,18.12
2023-05-10T12:33:11.157Z,18.17
2023-05-10T12:36:16.152Z,18.19
2023-05-10T12:39:19.006Z,18.11
2023-05-10T12:42:21.802Z,18.08
2023-05-10T12:45:24.611Z,18.06
2023-05-10T12:48:29.747Z,18.02
2023-05-10T12:51:32.789Z,18.10
2023-05-10T12:54:35.654Z,18.10
2023-05-10T12:57:38.364Z,18.14
2023-05-10T13:00:41.228Z,18.17
2023-05-10T13:03:46.740Z,18.17
2023-05-10T13:06:49.514Z,18.21
2023-05-10T13:09:52.475Z,18.24
2023-05-10T13:12:55.266Z,18.23
2023-05-10T13:15:58.000Z,18.20
2023-05-10T13:19:00.976Z,18.09
2023-05-10T13:22:04.093Z,17.98
2023-05-10T13:25:07.150Z,18.01
2023-05-10T13:28:10.101Z,17.98
2023-05-10T13:31:13.004Z,17.97
2023-05-10T13:34:16.109Z,17.97
2023-05-10T13:37:18.894Z,18.05
2023-05-10T13:40:21.691Z,18.09
2023-05-10T13:43:25.088Z,18.05
2023-05-10T13:46:27.894Z,18.00
2023-05-10T13:49:30.688Z,17.92
2023-05-10T13:52:33.559Z,17.88
2023-05-10T13:58:59.367Z,17.95
2023-05-10T14:02:04.929Z,18.08
2023-05-10T14:05:08.600Z,18.10
2023-05-10T14:08:12.065Z,18.03
2023-05-10T14:11:15.408Z,17.88
2023-05-10T14:14:18.216Z,17.82
2023-05-10T14:17:21.023Z,17.77
2023-05-10T14:20:23.772Z,17.73
2023-05-10T14:23:26.986Z,17.70
2023-05-10T14:26:29.992Z,17.78
2023-05-10T14:29:33.175Z,17.90
2023-05-10T14:32:37.625Z,17.97
2023-05-10T14:35:40.738Z,17.93
2023-05-10T14:38:43.511Z,17.82
2023-05-10T14:41:46.783Z,17.78
2023-05-10T14:44:49.748Z,17.69
2023-05-10T14:47:52.655Z,17.56
2023-05-10T14:50:55.675Z,17.47
2023-05-10T14:53:58.406Z,17.46
2023-05-10T14:57:01.714Z,17.47
2023-05-10T15:00:05.393Z,17.42
2023-05-10T15:03:09.114Z,17.38
2023-05-10T15:06:14.934Z,17.33
2023-05-10T15:09:17.827Z,17.29
2023-05-10T15:12:21.422Z,17.30
2023-05-10T15:15:24.603Z,17.33
2023-05-10T15:18:27.403Z,17.29
2023-05-10T15:21:31.834Z,17.22
2023-05-10T15:24:35.372Z,17.17
2023-05-10T15:27:38.221Z,17.10
2023-05-10T15:30:41.190Z,17.04
2023-05-10T15:33:44.111Z,16.97
2023-05-10T15:36:46.924Z,16.97
2023-05-10T15:39:50.031Z,16.97
2023-05-10T15:42:52.781Z,16.96
2023-05-10T15:45:55.577Z,16.92
2023-05-10T15:48:59.731Z,16.92
2023-05-10T15:52:02.691Z,16.94
2023-05-10T15:55:12.747Z,16.91
2023-05-10T15:58:15.778Z,16.85
2023-05-10T16:01:18.688Z,16.80
2023-05-10T16:04:23.642Z,16.79
2023-05-10T16:07:26.462Z,16.72
2023-05-10T16:10:33.195Z,16.62
2023-05-10T16:13:36.008Z,16.54
2023-05-10T16:16:38.932Z,16.50
2023-05-10T16:19:41.877Z,16.45
2023-05-10T16:22:44.714Z,16.40
2023-05-10T16:30:11.539Z,16.34
2023-05-10T16:33:14.602Z,16.31
2023-05-10T16:36:17.393Z,16.25
2023-05-10T16:39:20.183Z,16.19
2023-05-10T16:42:24.268Z,16.12
2023-05-10T16:45:27.067Z,16.04
2023-05-10T16:48:29.961Z,15.99
2023-05-10T16:51:32.734Z,15.95
2023-05-10T16:54:35.650Z,15.90
2023-05-10T16:57:38.470Z,15.85
2023-05-10T17:00:41.459Z,15.79
2023-05-10T17:03:44.318Z,15.74
2023-05-10T17:06:47.244Z,15.69
2023-05-10T17:09:50.012Z,15.65
2023-05-10T17:12:53.763Z,15.61
2023-05-10T17:15:57.070Z,15.54
2023-05-10T17:19:00.024Z,15.46
2023-05-10T17:22:03.095Z,15.41
2023-05-10T17:25:06.625Z,15.34
2023-05-10T17:28:09.455Z,15.28
2023-05-10T17:31:12.252Z,15.20
2023-05-10T17:34:15.057Z,15.16
2023-05-10T17:37:18.028Z,15.10
2023-05-10T17:40:21.002Z,15.01
2023-05-10T17:43:23.980Z,14.95
2023-05-10T17:46:26.750Z,14.87
2023-05-10T17:49:29.708Z,14.77
2023-05-10T17:52:33.719Z,14.68
2023-05-10T17:55:39.330Z,14.59
2023-05-10T17:58:42.149Z,14.51
2023-05-10T18:01:44.931Z,14.44
2023-05-10T18:04:49.376Z,14.36
2023-05-10T18:07:52.276Z,14.28
2023-05-10T18:10:55.144Z,14.19
2023-05-10T18:13:58.187Z,14.11
2023-05-10T18:17:01.076Z,14.03
2023-05-10T18:20:04.530Z,13.98
2023-05-10T18:23:07.523Z,13.91
2023-05-10T18:26:10.334Z,13.84
2023-05-10T18:29:13.110Z,13.76
2023-05-10T18:32:16.409Z,13.68
2023-05-10T18:35:19.520Z,13.62
2023-05-10T18:38:22.621Z,13.55
2023-05-10T18:41:26.950Z,13.47
2023-05-10T18:44:29.684Z,13.37
2023-05-10T18:47:32.416Z,13.25
2023-05-10T18:50:35.280Z,13.09
2023-05-10T18:53:38.701Z,12.99
2023-05-10T18:56:47.538Z,12.90
2023-05-10T18:59:50.361Z,12.81
2023-05-10T19:02:53.756Z,12.66
2023-05-10T19:05:56.683Z,12.52
2023-05-10T19:09:00.104Z,12.42
2023-05-10T19:12:02.984Z,12.35
2023-05-10T19:15:06.603Z,12.29
2023-05-10T19:18:09.767Z,12.22
2023-05-10T19:21:12.855Z,12.15
2023-05-10T19:24:15.676Z,12.07
2023-05-10T19:27:18.591Z,11.94
2023-05-10T19:30:21.520Z,11.80
2023-05-10T19:33:24.239Z,11.69
2023-05-10T19:36:27.121Z,11.63
2023-05-10T19:39:32.566Z,11.56
2023-05-10T19:42:35.512Z,11.51
2023-05-10T19:45:38.292Z,11.46
2023-05-10T19:48:42.074Z,11.39
2023-05-10T19:51:44.809Z,11.28
2023-05-10T19:54:47.539Z,11.16
2023-05-10T19:57:50.694Z,11.06
2023-05-10T20:00:53.476Z,11.02
2023-05-10T20:03:57.051Z,11.00
2023-05-10T20:06:59.897Z,11.01
2023-05-10T20:10:03.381Z,11.03
2023-05-10T20:13:06.105Z,11.06
2023-05-10T20:16:08.960Z,11.08
2023-05-10T20:19:12.377Z,11.09
2023-05-10T20:22:15.306Z,11.07
2023-05-10T20:25:18.997Z,11.07
2023-05-10T20:28:23.977Z,11.06
2023-05-10T20:31:26.833Z,11.03
2023-05-10T20:34:30.018Z,10.99
2023-05-10T20:37:32.751Z,10.95
2023-05-10T20:40:36.674Z,10.93
2023-05-10T20:43:39.547Z,10.89
2023-05-10T20:46:42.913Z,10.87
2023-05-10T20:49:45.798Z,10.84
2023-05-10T20:52:51.010Z,10.79
2023-05-10T20:55:53.895Z,10.74
2023-05-10T20:58:56.869Z,10.70
2023-05-10T21:02:00.005Z,10.67
2023-05-10T21:05:02.958Z,10.66
2023-05-10T21:08:06.184Z,10.61
2023-05-10T21:11:08.967Z,10.57
2023-05-10T21:14:11.689Z,10.51
2023-05-10T21:17:14.747Z,10.49
2023-05-10T21:20:17.764Z,10.46
2023-05-10T21:23:20.837Z,10.43
2023-05-10T21:26:23.707Z,10.38
2023-05-10T21:29:27.402Z,10.35
2023-05-10T21:32:30.200Z,10.32
2023-05-10T21:35:33.036Z,10.27
2023-05-10T21:38:35.861Z,10.23
2023-05-10T21:41:38.609Z,10.17
2023-05-10T21:44:41.370Z,10.15
2023-05-10T21:47:44.319Z,10.12
2023-05-10T21:50:47.939Z,10.07
2023-05-10T21:53:50.956Z,10.03
2023-05-10T21:56:53.734Z,9.98
2023-05-10T21:59:56.742Z,9.94
2023-05-10T22:02:59.590Z,9.92
2023-05-10T22:06:02.467Z,9.90
2023-05-10T22:09:05.307Z,9.85
2023-05-10T22:12:08.182Z,9.81
2023-05-10T22:15:11.559Z,9.76
2023-05-10T22:18:14.284Z,9.73
2023-05-10T22:21:17.196Z,9.69
2023-05-10T22:24:20.028Z,9.62
2023-05-10T22:27:22.932Z,9.58
2023-05-10T22:30:25.858Z,9.55
2023-05-10T22:33:28.741Z,9.49
2023-05-10T22:36:32.505Z,9.41
2023-05-10T22:39:35.567Z,9.37
2023-05-10T22:42:38.379Z,9.33
2023-05-10T22:45:41.155Z,9.26
2023-05-10T22:48:43.881Z,9.23
2023-05-10T22:51:46.715Z,9.19
2023-05-10T22:54:49.734Z,9.17
2023-05-10T22:57:52.709Z,9.12
2023-05-10T23:00:55.969Z,9.08
2023-05-10T23:03:59.588Z,9.02
2023-05-10T23:07:02.423Z,8.95
2023-05-10T23:10:05.708Z,8.88
2023-05-10T23:13:08.452Z,8.83
2023-05-10T23:16:11.318Z,8.77
2023-05-10T23:19:14.266Z,8.73
2023-05-10T23:22:17.042Z,8.71
2023-05-10T23:25:19.773Z,8.67
2023-05-10T23:28:22.507Z,8.61
2023-05-10T23:31:25.351Z,8.54
2023-05-10T23:34:28.146Z,8.50
2023-05-10T23:37:31.099Z,8.46
2023-05-10T23:40:35.531Z,8.41
2023-05-10T23:43:38.312Z,8.38
2023-05-10T23:46:41.165Z,8.36
2023-05-10T23:49:44.088Z,8.34
2023-05-10T23:52:46.870Z,8.32
2023-05-10T23:55:50.279Z,8.29
2023-05-10T23:58:53.007Z,8.26
